sensor_id;sensor_type;location;lat;lon;timestamp;temperature;humidity
8832;DHT22;4452;50.756;4.472;2022-10-20T00:00:57;11.20;99.90
8832;DHT22;4452;50.756;4.472;2022-10-20T00:03:23;11.20;99.90
8832;DHT22;4452;50.756;4.472;2022-10-20T00:05:49;11.20;99.90
8832;DHT22;4452;50.756;4.472;2022-10-20T00:08:14;11.20;99.90
8832;DHT22;4452;50.756;4.472;2022-10-20T00:10:41;11.10;99.90
8832;DHT22;4452;50.756;4.472;2022-10-20T00:13:07;11.20;99.90
8832;DHT22;4452;50.756;4.472;2022-10-20T00:15:32;11.20;99.90
8832;DHT22;4452;50.756;4.472;2022-10-20T00:17:59;11.20;99.90
8832;DHT22;4452;50.756;4.472;2022-10-20T00:20:25;11.20;99.90
8832;DHT22;4452;50.756;4.472;2022-10-20T00:22:50;11.20;99.90
8832;DHT22;4452;50.756;4.472;2022-10-20T00:25:16;11.20;99.90
8832;DHT22;4452;50.756;4.472;2022-10-20T00:27:41;11.20;99.90
8832;DHT22;4452;50.756;4.472;2022-10-20T00:30:07;11.10;99.90
8832;DHT22;4452;50.756;4.472;2022-10-20T00:32:33;11.20;99.90
8832;DHT22;4452;50.756;4.472;2022-10-20T00:34:58;11.10;99.90
8832;DHT22;4452;50.756;4.472;2022-10-20T00:37:24;11.10;99.90
8832;DHT22;4452;50.756;4.472;2022-10-20T00:39:50;11.10;99.90
8832;DHT22;4452;50.756;4.472;2022-10-20T00:42:17;11.20;99.90
8832;DHT22;4452;50.756;4.472;2022-10-20T00:47:38;11.10;99.90
8832;DHT22;4452;50.756;4.472;2022-10-20T00:50:29;11.10;99.90
8832;DHT22;4452;50.756;4.472;2022-10-20T00:52:54;11.10;99.90
8832;DHT22;4452;50.756;4.472;2022-10-20T00:55:29;11.10;99.90
8832;DHT22;4452;50.756;4.472;2022-10-20T00:57:57;11.10;99.90
8832;DHT22;4452;50.756;4.472;2022-10-20T01:00:24;11.10;99.90
8832;DHT22;4452;50.756;4.472;2022-10-20T01:02:51;11.10;99.90
8832;DHT22;4452;50.756;4.472;2022-10-20T01:05:18;11.10;99.90
8832;DHT22;4452;50.756;4.472;2022-10-20T01:07:44;11.10;99.90
8832;DHT22;4452;50.756;4.472;2022-10-20T01:10:10;11.20;99.90
8832;DHT22;4452;50.756;4.472;2022-10-20T01:13:00;11.10;99.90
8832;DHT22;4452;50.756;4.472;2022-10-20T01:15:34;11.20;99.90
8832;DHT22;4452;50.756;4.472;2022-10-20T01:26:49;11.20;99.90
8832;DHT22;4452;50.756;4.472;2022-10-20T01:29:32;11.20;99.90
8832;DHT22;4452;50.756;4.472;2022-10-20T01:34:29;11.20;99.90
8832;DHT22;4452;50.756;4.472;2022-10-20T01:42:41;11.20;99.90
8832;DHT22;4452;50.756;4.472;2022-10-20T01:45:10;11.10;99.90
8832;DHT22;4452;50.756;4.472;2022-10-20T01:47:38;11.10;99.90
8832;DHT22;4452;50.756;4.472;2022-10-20T01:50:05;11.20;99.90
8832;DHT22;4452;50.756;4.472;2022-10-20T01:52:31;11.20;99.90
8832;DHT22;4452;50.756;4.472;2022-10-20T01:54:57;11.20;99.90
8832;DHT22;4452;50.756;4.472;2022-10-20T02:00:04;11.20;99.90
8832;DHT22;4452;50.756;4.472;2022-10-20T02:05:20;11.10;99.90
8832;DHT22;4452;50.756;4.472;2022-10-20T02:07:47;11.10;99.90
8832;DHT22;4452;50.756;4.472;2022-10-20T02:10:21;11.10;99.90
8832;DHT22;4452;50.756;4.472;2022-10-20T02:12:55;11.20;99.90
8832;DHT22;4452;50.756;4.472;2022-10-20T02:15:24;11.20;99.90
8832;DHT22;4452;50.756;4.472;2022-10-20T02:18:02;11.20;99.90
8832;DHT22;4452;50.756;4.472;2022-10-20T02:20:30;11.20;99.90
8832;DHT22;4452;50.756;4.472;2022-10-20T02:22:57;11.30;99.90
8832;DHT22;4452;50.756;4.472;2022-10-20T02:25:25;11.30;99.90
8832;DHT22;4452;50.756;4.472;2022-10-20T02:27:52;11.20;99.90
8832;DHT22;4452;50.756;4.472;2022-10-20T02:30:18;11.20;99.90
8832;DHT22;4452;50.756;4.472;2022-10-20T02:32:47;11.20;99.90
8832;DHT22;4452;50.756;4.472;2022-10-20T02:35:22;11.20;99.90
8832;DHT22;4452;50.756;4.472;2022-10-20T02:37:50;11.10;99.90
8832;DHT22;4452;50.756;4.472;2022-10-20T02:40:16;11.10;99.90
8832;DHT22;4452;50.756;4.472;2022-10-20T02:42:42;11.10;99.90
8832;DHT22;4452;50.756;4.472;2022-10-20T02:45:08;11.00;99.90
8832;DHT22;4452;50.756;4.472;2022-10-20T02:47:34;11.00;99.90
8832;DHT22;4452;50.756;4.472;2022-10-20T02:50:00;11.00;99.90
8832;DHT22;4452;50.756;4.472;2022-10-20T02:52:27;11.00;99.90
8832;DHT22;4452;50.756;4.472;2022-10-20T02:54:52;11.00;99.90
8832;DHT22;4452;50.756;4.472;2022-10-20T02:57:18;11.10;99.90
8832;DHT22;4452;50.756;4.472;2022-10-20T02:59:44;11.10;99.90
8832;DHT22;4452;50.756;4.472;2022-10-20T03:02:09;11.20;99.90
8832;DHT22;4452;50.756;4.472;2022-10-20T03:04:35;11.10;99.90
8832;DHT22;4452;50.756;4.472;2022-10-20T03:07:00;11.20;99.90
8832;DHT22;4452;50.756;4.472;2022-10-20T03:09:26;11.20;99.90
8832;DHT22;4452;50.756;4.472;2022-10-20T03:11:52;11.20;99.90
8832;DHT22;4452;50.756;4.472;2022-10-20T03:14:17;11.20;99.90
8832;DHT22;4452;50.756;4.472;2022-10-20T03:16:43;11.20;99.90
8832;DHT22;4452;50.756;4.472;2022-10-20T03:19:08;11.20;99.90
8832;DHT22;4452;50.756;4.472;2022-10-20T03:21:34;11.20;99.90
8832;DHT22;4452;50.756;4.472;2022-10-20T03:24:00;11.20;99.90
8832;DHT22;4452;50.756;4.472;2022-10-20T03:26:25;11.20;99.90
8832;DHT22;4452;50.756;4.472;2022-10-20T03:28:51;11.20;99.90
8832;DHT22;4452;50.756;4.472;2022-10-20T03:31:16;11.10;99.90
8832;DHT22;4452;50.756;4.472;2022-10-20T03:33:42;11.20;99.90
8832;DHT22;4452;50.756;4.472;2022-10-20T03:36:08;11.10;99.90
8832;DHT22;4452;50.756;4.472;2022-10-20T03:38:33;11.10;99.90
8832;DHT22;4452;50.756;4.472;2022-10-20T03:40:59;11.10;99.90
8832;DHT22;4452;50.756;4.472;2022-10-20T03:43:25;11.10;99.90
8832;DHT22;4452;50.756;4.472;2022-10-20T03:46:04;11.10;99.90
8832;DHT22;4452;50.756;4.472;2022-10-20T03:48:30;11.10;99.90
8832;DHT22;4452;50.756;4.472;2022-10-20T03:50:56;11.20;99.90
8832;DHT22;4452;50.756;4.472;2022-10-20T03:53:21;11.20;99.90
8832;DHT22;4452;50.756;4.472;2022-10-20T03:55:47;11.10;99.90
8832;DHT22;4452;50.756;4.472;2022-10-20T03:58:13;11.10;99.90
8832;DHT22;4452;50.756;4.472;2022-10-20T04:00:38;11.20;99.90
8832;DHT22;4452;50.756;4.472;2022-10-20T04:03:04;11.30;99.90
8832;DHT22;4452;50.756;4.472;2022-10-20T04:05:29;11.40;99.90
8832;DHT22;4452;50.756;4.472;2022-10-20T04:07:55;11.50;99.90
8832;DHT22;4452;50.756;4.472;2022-10-20T04:10:21;11.50;99.90
8832;DHT22;4452;50.756;4.472;2022-10-20T04:12:46;11.50;99.90
8832;DHT22;4452;50.756;4.472;2022-10-20T04:15:12;11.50;99.90
8832;DHT22;4452;50.756;4.472;2022-10-20T04:17:38;11.40;99.90
8832;DHT22;4452;50.756;4.472;2022-10-20T04:20:04;11.40;99.90
8832;DHT22;4452;50.756;4.472;2022-10-20T04:22:30;11.40;99.90
8832;DHT22;4452;50.756;4.472;2022-10-20T04:24:56;11.50;99.90
8832;DHT22;4452;50.756;4.472;2022-10-20T04:27:22;11.60;99.90
8832;DHT22;4452;50.756;4.472;2022-10-20T04:29:47;11.60;99.90
8832;DHT22;4452;50.756;4.472;2022-10-20T04:32:13;11.70;99.90
8832;DHT22;4452;50.756;4.472;2022-10-20T04:34:39;11.60;99.90
8832;DHT22;4452;50.756;4.472;2022-10-20T04:37:04;11.70;99.90
8832;DHT22;4452;50.756;4.472;2022-10-20T04:39:30;11.80;99.90
8832;DHT22;4452;50.756;4.472;2022-10-20T04:41:56;11.80;99.90
8832;DHT22;4452;50.756;4.472;2022-10-20T04:44:21;11.90;99.90
8832;DHT22;4452;50.756;4.472;2022-10-20T04:46:47;12.00;99.90
8832;DHT22;4452;50.756;4.472;2022-10-20T04:49:13;12.00;99.90
8832;DHT22;4452;50.756;4.472;2022-10-20T04:51:38;12.00;99.90
8832;DHT22;4452;50.756;4.472;2022-10-20T04:54:04;12.00;99.90
8832;DHT22;4452;50.756;4.472;2022-10-20T04:56:29;12.10;99.90
8832;DHT22;4452;50.756;4.472;2022-10-20T04:58:56;12.10;99.90
8832;DHT22;4452;50.756;4.472;2022-10-20T05:01:27;12.10;99.90
8832;DHT22;4452;50.756;4.472;2022-10-20T05:03:53;12.10;99.90
8832;DHT22;4452;50.756;4.472;2022-10-20T05:06:27;12.10;99.90
8832;DHT22;4452;50.756;4.472;2022-10-20T05:08:56;12.10;99.90
8832;DHT22;4452;50.756;4.472;2022-10-20T05:11:24;12.10;99.90
8832;DHT22;4452;50.756;4.472;2022-10-20T05:13:50;12.10;99.90
8832;DHT22;4452;50.756;4.472;2022-10-20T05:16:16;12.20;99.90
8832;DHT22;4452;50.756;4.472;2022-10-20T05:18:42;12.20;99.90
8832;DHT22;4452;50.756;4.472;2022-10-20T05:21:11;12.30;99.90
8832;DHT22;4452;50.756;4.472;2022-10-20T05:23:37;12.30;99.90
8832;DHT22;4452;50.756;4.472;2022-10-20T05:26:09;12.40;99.90
8832;DHT22;4452;50.756;4.472;2022-10-20T05:28:35;12.40;99.90
8832;DHT22;4452;50.756;4.472;2022-10-20T05:31:02;12.40;99.90
8832;DHT22;4452;50.756;4.472;2022-10-20T05:33:28;12.40;99.90
8832;DHT22;4452;50.756;4.472;2022-10-20T05:35:54;12.50;99.90
8832;DHT22;4452;50.756;4.472;2022-10-20T05:38:19;12.50;99.90
8832;DHT22;4452;50.756;4.472;2022-10-20T05:40:45;12.50;99.90
8832;DHT22;4452;50.756;4.472;2022-10-20T05:43:10;12.50;99.90
8832;DHT22;4452;50.756;4.472;2022-10-20T05:45:36;12.60;99.90
8832;DHT22;4452;50.756;4.472;2022-10-20T05:48:02;12.60;99.90
8832;DHT22;4452;50.756;4.472;2022-10-20T05:50:27;12.60;99.90
8832;DHT22;4452;50.756;4.472;2022-10-20T05:52:53;12.60;99.90
8832;DHT22;4452;50.756;4.472;2022-10-20T05:55:18;12.60;99.90
8832;DHT22;4452;50.756;4.472;2022-10-20T05:57:44;12.60;99.90
8832;DHT22;4452;50.756;4.472;2022-10-20T06:00:10;12.60;99.90
8832;DHT22;4452;50.756;4.472;2022-10-20T06:02:36;12.50;99.90
8832;DHT22;4452;50.756;4.472;2022-10-20T06:05:02;12.50;99.90
8832;DHT22;4452;50.756;4.472;2022-10-20T06:07:28;12.60;99.90
8832;DHT22;4452;50.756;4.472;2022-10-20T06:09:53;12.60;99.90
8832;DHT22;4452;50.756;4.472;2022-10-20T06:12:19;12.60;99.90
8832;DHT22;4452;50.756;4.472;2022-10-20T06:14:44;12.60;99.90
8832;DHT22;4452;50.756;4.472;2022-10-20T06:17:10;12.60;99.90
8832;DHT22;4452;50.756;4.472;2022-10-20T06:19:35;12.70;99.90
8832;DHT22;4452;50.756;4.472;2022-10-20T06:22:01;12.70;99.90
8832;DHT22;4452;50.756;4.472;2022-10-20T06:24:27;12.70;99.90
8832;DHT22;4452;50.756;4.472;2022-10-20T06:26:52;12.70;99.90
8832;DHT22;4452;50.756;4.472;2022-10-20T06:29:18;12.70;99.90
8832;DHT22;4452;50.756;4.472;2022-10-20T06:31:49;12.70;99.90
8832;DHT22;4452;50.756;4.472;2022-10-20T06:34:20;12.80;99.90
8832;DHT22;4452;50.756;4.472;2022-10-20T06:36:47;12.80;99.90
8832;DHT22;4452;50.756;4.472;2022-10-20T06:39:18;12.80;99.90
8832;DHT22;4452;50.756;4.472;2022-10-20T06:41:51;12.90;99.90
8832;DHT22;4452;50.756;4.472;2022-10-20T06:44:19;12.90;99.90
8832;DHT22;4452;50.756;4.472;2022-10-20T06:46:45;13.00;99.90
8832;DHT22;4452;50.756;4.472;2022-10-20T06:49:11;13.10;99.90
8832;DHT22;4452;50.756;4.472;2022-10-20T06:51:37;13.10;99.90
8832;DHT22;4452;50.756;4.472;2022-10-20T06:54:04;13.10;99.90
8832;DHT22;4452;50.756;4.472;2022-10-20T06:56:32;13.20;99.90
8832;DHT22;4452;50.756;4.472;2022-10-20T06:58:58;13.20;99.90
8832;DHT22;4452;50.756;4.472;2022-10-20T07:01:30;13.20;99.90
8832;DHT22;4452;50.756;4.472;2022-10-20T07:03:58;13.30;99.90
8832;DHT22;4452;50.756;4.472;2022-10-20T07:06:27;13.30;99.90
8832;DHT22;4452;50.756;4.472;2022-10-20T07:08:54;13.40;99.90
8832;DHT22;4452;50.756;4.472;2022-10-20T07:11:22;13.40;99.90
8832;DHT22;4452;50.756;4.472;2022-10-20T07:13:48;13.50;99.90
8832;DHT22;4452;50.756;4.472;2022-10-20T07:16:17;13.50;99.90
8832;DHT22;4452;50.756;4.472;2022-10-20T07:18:44;13.60;99.90
8832;DHT22;4452;50.756;4.472;2022-10-20T07:21:18;13.70;99.90
8832;DHT22;4452;50.756;4.472;2022-10-20T07:23:44;13.80;99.90
8832;DHT22;4452;50.756;4.472;2022-10-20T07:26:16;13.90;99.90
8832;DHT22;4452;50.756;4.472;2022-10-20T07:28:44;14.00;99.90
8832;DHT22;4452;50.756;4.472;2022-10-20T07:31:15;14.10;99.90
8832;DHT22;4452;50.756;4.472;2022-10-20T07:33:42;14.20;99.90
8832;DHT22;4452;50.756;4.472;2022-10-20T07:36:28;14.30;99.90
8832;DHT22;4452;50.756;4.472;2022-10-20T07:38:56;14.40;99.90
8832;DHT22;4452;50.756;4.472;2022-10-20T07:41:22;14.50;99.90
8832;DHT22;4452;50.756;4.472;2022-10-20T07:43:48;14.60;99.90
8832;DHT22;4452;50.756;4.472;2022-10-20T07:46:14;14.60;99.90
8832;DHT22;4452;50.756;4.472;2022-10-20T07:48:40;14.60;99.90
8832;DHT22;4452;50.756;4.472;2022-10-20T07:51:32;14.60;99.90
8832;DHT22;4452;50.756;4.472;2022-10-20T07:54:07;14.70;99.90
8832;DHT22;4452;50.756;4.472;2022-10-20T07:56:41;14.90;99.90
8832;DHT22;4452;50.756;4.472;2022-10-20T07:59:07;14.80;99.90
8832;DHT22;4452;50.756;4.472;2022-10-20T08:01:33;14.90;99.90
8832;DHT22;4452;50.756;4.472;2022-10-20T08:03:59;15.00;99.90
8832;DHT22;4452;50.756;4.472;2022-10-20T08:06:25;15.10;99.90
8832;DHT22;4452;50.756;4.472;2022-10-20T08:08:52;15.10;99.90
8832;DHT22;4452;50.756;4.472;2022-10-20T08:11:17;15.20;99.90
8832;DHT22;4452;50.756;4.472;2022-10-20T08:13:43;15.20;99.90
8832;DHT22;4452;50.756;4.472;2022-10-20T08:16:12;15.20;99.90
8832;DHT22;4452;50.756;4.472;2022-10-20T08:18:38;15.20;99.90
8832;DHT22;4452;50.756;4.472;2022-10-20T08:21:14;15.10;99.90
8832;DHT22;4452;50.756;4.472;2022-10-20T08:23:41;15.10;99.90
8832;DHT22;4452;50.756;4.472;2022-10-20T08:26:08;15.20;99.90
8832;DHT22;4452;50.756;4.472;2022-10-20T08:28:34;15.20;99.90
8832;DHT22;4452;50.756;4.472;2022-10-20T08:31:04;15.10;99.90
8832;DHT22;4452;50.756;4.472;2022-10-20T08:33:31;15.10;99.90
8832;DHT22;4452;50.756;4.472;2022-10-20T08:36:04;15.10;99.90
8832;DHT22;4452;50.756;4.472;2022-10-20T08:38:31;15.10;99.90
8832;DHT22;4452;50.756;4.472;2022-10-20T08:40:58;15.10;99.90
8832;DHT22;4452;50.756;4.472;2022-10-20T08:43:24;15.10;99.90
8832;DHT22;4452;50.756;4.472;2022-10-20T08:45:50;15.00;99.90
8832;DHT22;4452;50.756;4.472;2022-10-20T08:48:21;15.00;99.90
8832;DHT22;4452;50.756;4.472;2022-10-20T08:50:49;15.10;99.90
8832;DHT22;4452;50.756;4.472;2022-10-20T08:53:18;15.00;99.90
8832;DHT22;4452;50.756;4.472;2022-10-20T08:55:45;15.00;99.90
8832;DHT22;4452;50.756;4.472;2022-10-20T08:58:18;15.00;99.90
8832;DHT22;4452;50.756;4.472;2022-10-20T09:00:44;15.00;99.90
8832;DHT22;4452;50.756;4.472;2022-10-20T09:03:20;15.00;99.90
8832;DHT22;4452;50.756;4.472;2022-10-20T09:06:05;15.00;99.90
8832;DHT22;4452;50.756;4.472;2022-10-20T09:08:34;15.00;99.90
8832;DHT22;4452;50.756;4.472;2022-10-20T09:11:23;15.00;99.90
8832;DHT22;4452;50.756;4.472;2022-10-20T09:14:10;15.00;99.90
8832;DHT22;4452;50.756;4.472;2022-10-20T09:16:54;15.10;99.90
8832;DHT22;4452;50.756;4.472;2022-10-20T09:19:39;15.10;99.90
8832;DHT22;4452;50.756;4.472;2022-10-20T09:22:06;15.10;99.90
8832;DHT22;4452;50.756;4.472;2022-10-20T09:24:34;15.10;99.90
8832;DHT22;4452;50.756;4.472;2022-10-20T09:27:20;15.10;99.90
8832;DHT22;4452;50.756;4.472;2022-10-20T09:29:47;15.20;99.90
8832;DHT22;4452;50.756;4.472;2022-10-20T09:32:33;15.20;99.90
8832;DHT22;4452;50.756;4.472;2022-10-20T09:35:31;15.20;99.90
8832;DHT22;4452;50.756;4.472;2022-10-20T09:40:45;15.30;99.90
8832;DHT22;4452;50.756;4.472;2022-10-20T09:43:18;15.40;99.90
8832;DHT22;4452;50.756;4.472;2022-10-20T09:46:03;15.50;99.90
8832;DHT22;4452;50.756;4.472;2022-10-20T09:48:39;15.60;99.90
8832;DHT22;4452;50.756;4.472;2022-10-20T09:51:13;15.70;99.90
8832;DHT22;4452;50.756;4.472;2022-10-20T09:54:02;15.70;99.90
8832;DHT22;4452;50.756;4.472;2022-10-20T09:58:58;15.80;99.90
8832;DHT22;4452;50.756;4.472;2022-10-20T10:01:25;15.90;99.90
8832;DHT22;4452;50.756;4.472;2022-10-20T10:03:52;16.00;99.90
8832;DHT22;4452;50.756;4.472;2022-10-20T10:06:41;16.00;99.90
8832;DHT22;4452;50.756;4.472;2022-10-20T10:09:27;16.10;99.90
8832;DHT22;4452;50.756;4.472;2022-10-20T10:14:51;16.30;99.90
8832;DHT22;4452;50.756;4.472;2022-10-20T10:20:00;16.60;99.90
8832;DHT22;4452;50.756;4.472;2022-10-20T10:22:30;16.80;99.90
8832;DHT22;4452;50.756;4.472;2022-10-20T10:24:56;17.00;99.90
8832;DHT22;4452;50.756;4.472;2022-10-20T10:27:30;17.10;99.90
8832;DHT22;4452;50.756;4.472;2022-10-20T10:30:26;17.40;99.90
8832;DHT22;4452;50.756;4.472;2022-10-20T10:32:53;17.30;99.90
8832;DHT22;4452;50.756;4.472;2022-10-20T10:35:32;17.40;99.90
8832;DHT22;4452;50.756;4.472;2022-10-20T10:38:00;17.40;99.90
8832;DHT22;4452;50.756;4.472;2022-10-20T10:46:26;17.70;99.90
8832;DHT22;4452;50.756;4.472;2022-10-20T10:49:19;17.90;99.90
8832;DHT22;4452;50.756;4.472;2022-10-20T10:54:32;18.00;99.90
8832;DHT22;4452;50.756;4.472;2022-10-20T10:57:14;17.70;99.90
8832;DHT22;4452;50.756;4.472;2022-10-20T10:59:43;17.90;99.90
8832;DHT22;4452;50.756;4.472;2022-10-20T11:02:27;17.90;99.90
8832;DHT22;4452;50.756;4.472;2022-10-20T11:11:00;17.60;99.90
8832;DHT22;4452;50.756;4.472;2022-10-20T11:13:37;17.60;99.90
8832;DHT22;4452;50.756;4.472;2022-10-20T11:22:12;18.20;99.90
8832;DHT22;4452;50.756;4.472;2022-10-20T11:27:35;18.70;99.90
8832;DHT22;4452;50.756;4.472;2022-10-20T11:30:12;18.70;99.90
8832;DHT22;4452;50.756;4.472;2022-10-20T11:32:46;18.80;99.90
8832;DHT22;4452;50.756;4.472;2022-10-20T11:35:28;18.70;99.90
8832;DHT22;4452;50.756;4.472;2022-10-20T11:38:29;18.60;99.90
8832;DHT22;4452;50.756;4.472;2022-10-20T11:46:57;19.20;99.90
8832;DHT22;4452;50.756;4.472;2022-10-20T11:49:25;19.30;99.90
8832;DHT22;4452;50.756;4.472;2022-10-20T11:51:58;19.60;99.90
8832;DHT22;4452;50.756;4.472;2022-10-20T11:54:54;19.50;99.90
8832;DHT22;4452;50.756;4.472;2022-10-20T11:57:44;19.40;99.90
8832;DHT22;4452;50.756;4.472;2022-10-20T12:00:40;19.30;99.90
8832;DHT22;4452;50.756;4.472;2022-10-20T12:19:21;19.60;99.90
8832;DHT22;4452;50.756;4.472;2022-10-20T12:21:58;19.60;99.90
8832;DHT22;4452;50.756;4.472;2022-10-20T12:34:55;20.10;99.90
8832;DHT22;4452;50.756;4.472;2022-10-20T12:37:26;20.20;99.90
8832;DHT22;4452;50.756;4.472;2022-10-20T12:39:55;20.20;99.90
8832;DHT22;4452;50.756;4.472;2022-10-20T12:44:51;20.20;99.90
8832;DHT22;4452;50.756;4.472;2022-10-20T12:47:22;20.30;99.90
8832;DHT22;4452;50.756;4.472;2022-10-20T12:49:55;20.40;99.90
8832;DHT22;4452;50.756;4.472;2022-10-20T12:52:27;20.50;99.90
8832;DHT22;4452;50.756;4.472;2022-10-20T12:55:07;20.40;99.90
8832;DHT22;4452;50.756;4.472;2022-10-20T12:57:39;20.40;99.90
8832;DHT22;4452;50.756;4.472;2022-10-20T13:02:56;20.30;99.90
8832;DHT22;4452;50.756;4.472;2022-10-20T13:05:38;20.20;99.90
8832;DHT22;4452;50.756;4.472;2022-10-20T13:10:43;20.60;99.90
8832;DHT22;4452;50.756;4.472;2022-10-20T13:25:58;21.10;99.90
8832;DHT22;4452;50.756;4.472;2022-10-20T13:28:29;20.90;99.90
8832;DHT22;4452;50.756;4.472;2022-10-20T13:31:26;20.90;99.90
8832;DHT22;4452;50.756;4.472;2022-10-20T13:39:09;20.40;99.90
8832;DHT22;4452;50.756;4.472;2022-10-20T13:41:48;20.40;99.90
8832;DHT22;4452;50.756;4.472;2022-10-20T13:44:53;20.40;99.90
8832;DHT22;4452;50.756;4.472;2022-10-20T13:47:38;20.40;99.90
8832;DHT22;4452;50.756;4.472;2022-10-20T13:50:33;20.60;99.90
8832;DHT22;4452;50.756;4.472;2022-10-20T13:53:21;21.10;99.90
8832;DHT22;4452;50.756;4.472;2022-10-20T13:58:41;21.80;99.90
8832;DHT22;4452;50.756;4.472;2022-10-20T14:01:25;21.80;99.90
8832;DHT22;4452;50.756;4.472;2022-10-20T14:03:51;21.30;99.90
8832;DHT22;4452;50.756;4.472;2022-10-20T14:08:55;21.50;99.90
8832;DHT22;4452;50.756;4.472;2022-10-20T14:11:23;22.00;99.90
8832;DHT22;4452;50.756;4.472;2022-10-20T14:13:49;22.50;99.90
8832;DHT22;4452;50.756;4.472;2022-10-20T14:16:25;22.30;99.90
8832;DHT22;4452;50.756;4.472;2022-10-20T14:19:11;22.00;99.90
8832;DHT22;4452;50.756;4.472;2022-10-20T14:21:42;22.10;99.90
8832;DHT22;4452;50.756;4.472;2022-10-20T14:24:14;22.80;99.90
8832;DHT22;4452;50.756;4.472;2022-10-20T14:26:42;23.40;99.90
8832;DHT22;4452;50.756;4.472;2022-10-20T14:29:13;23.10;99.90
8832;DHT22;4452;50.756;4.472;2022-10-20T14:31:40;22.70;99.90
8832;DHT22;4452;50.756;4.472;2022-10-20T14:34:19;22.30;99.90
8832;DHT22;4452;50.756;4.472;2022-10-20T14:36:45;22.70;99.90
8832;DHT22;4452;50.756;4.472;2022-10-20T14:39:31;22.90;99.90
8832;DHT22;4452;50.756;4.472;2022-10-20T14:41:59;23.00;99.90
8832;DHT22;4452;50.756;4.472;2022-10-20T14:44:26;23.10;99.90
8832;DHT22;4452;50.756;4.472;2022-10-20T14:46:55;23.10;99.90
8832;DHT22;4452;50.756;4.472;2022-10-20T14:49:24;23.30;99.90
8832;DHT22;4452;50.756;4.472;2022-10-20T14:59:24;22.90;99.90
8832;DHT22;4452;50.756;4.472;2022-10-20T15:04:34;23.90;99.90
8832;DHT22;4452;50.756;4.472;2022-10-20T15:07:12;23.60;99.90
8832;DHT22;4452;50.756;4.472;2022-10-20T15:09:50;23.70;99.90
8832;DHT22;4452;50.756;4.472;2022-10-20T15:23:09;23.10;99.90
8832;DHT22;4452;50.756;4.472;2022-10-20T15:25:57;22.40;99.90
8832;DHT22;4452;50.756;4.472;2022-10-20T15:30:50;21.80;99.90
8832;DHT22;4452;50.756;4.472;2022-10-20T15:33:16;21.50;99.90
8832;DHT22;4452;50.756;4.472;2022-10-20T15:35:41;21.30;99.90
8832;DHT22;4452;50.756;4.472;2022-10-20T15:38:12;21.10;99.90
8832;DHT22;4452;50.756;4.472;2022-10-20T15:40:37;20.90;99.90
8832;DHT22;4452;50.756;4.472;2022-10-20T15:43:03;20.70;99.90
8832;DHT22;4452;50.756;4.472;2022-10-20T15:45:33;20.60;99.90
8832;DHT22;4452;50.756;4.472;2022-10-20T15:48:01;20.50;99.90
8832;DHT22;4452;50.756;4.472;2022-10-20T15:50:27;20.30;99.90
8832;DHT22;4452;50.756;4.472;2022-10-20T15:52:53;20.30;99.90
8832;DHT22;4452;50.756;4.472;2022-10-20T15:55:20;20.10;99.90
8832;DHT22;4452;50.756;4.472;2022-10-20T15:57:48;20.00;99.90
8832;DHT22;4452;50.756;4.472;2022-10-20T16:00:15;19.90;99.90
8832;DHT22;4452;50.756;4.472;2022-10-20T16:02:40;19.80;99.90
8832;DHT22;4452;50.756;4.472;2022-10-20T16:05:06;19.80;99.90
8832;DHT22;4452;50.756;4.472;2022-10-20T16:07:32;19.70;99.90
8832;DHT22;4452;50.756;4.472;2022-10-20T16:09:57;19.70;99.90
8832;DHT22;4452;50.756;4.472;2022-10-20T16:12:23;19.50;99.90
8832;DHT22;4452;50.756;4.472;2022-10-20T16:14:50;19.50;99.90
8832;DHT22;4452;50.756;4.472;2022-10-20T16:17:16;19.50;99.90
8832;DHT22;4452;50.756;4.472;2022-10-20T16:19:42;19.40;99.90
8832;DHT22;4452;50.756;4.472;2022-10-20T16:22:08;19.30;99.90
8832;DHT22;4452;50.756;4.472;2022-10-20T16:24:33;19.30;99.90
8832;DHT22;4452;50.756;4.472;2022-10-20T16:26:59;19.30;99.90
8832;DHT22;4452;50.756;4.472;2022-10-20T16:29:25;19.20;99.90
8832;DHT22;4452;50.756;4.472;2022-10-20T16:31:50;19.20;99.90
8832;DHT22;4452;50.756;4.472;2022-10-20T16:34:16;19.10;99.90
8832;DHT22;4452;50.756;4.472;2022-10-20T16:36:42;19.10;99.90
8832;DHT22;4452;50.756;4.472;2022-10-20T16:39:07;19.10;99.90
8832;DHT22;4452;50.756;4.472;2022-10-20T16:41:33;19.00;99.90
8832;DHT22;4452;50.756;4.472;2022-10-20T16:43:58;19.00;99.90
8832;DHT22;4452;50.756;4.472;2022-10-20T16:46:24;18.90;99.90
8832;DHT22;4452;50.756;4.472;2022-10-20T16:48:50;18.90;99.90
8832;DHT22;4452;50.756;4.472;2022-10-20T16:51:16;18.80;99.90
8832;DHT22;4452;50.756;4.472;2022-10-20T16:53:43;18.70;99.90
8832;DHT22;4452;50.756;4.472;2022-10-20T16:56:08;18.60;99.90
8832;DHT22;4452;50.756;4.472;2022-10-20T16:58:34;18.60;99.90
8832;DHT22;4452;50.756;4.472;2022-10-20T17:01:05;18.50;99.90
8832;DHT22;4452;50.756;4.472;2022-10-20T17:03:33;18.30;99.90
8832;DHT22;4452;50.756;4.472;2022-10-20T17:06:02;18.30;99.90
8832;DHT22;4452;50.756;4.472;2022-10-20T17:08:28;18.30;99.90
8832;DHT22;4452;50.756;4.472;2022-10-20T17:11:02;18.20;99.90
8832;DHT22;4452;50.756;4.472;2022-10-20T17:13:29;18.10;99.90
8832;DHT22;4452;50.756;4.472;2022-10-20T17:15:55;18.00;99.90
8832;DHT22;4452;50.756;4.472;2022-10-20T17:18:21;18.10;99.90
8832;DHT22;4452;50.756;4.472;2022-10-20T17:20:54;18.10;99.90
8832;DHT22;4452;50.756;4.472;2022-10-20T17:23:24;18.10;99.90
8832;DHT22;4452;50.756;4.472;2022-10-20T17:25:51;18.10;99.90
8832;DHT22;4452;50.756;4.472;2022-10-20T17:28:17;18.00;99.90
8832;DHT22;4452;50.756;4.472;2022-10-20T17:30:44;18.10;99.90
8832;DHT22;4452;50.756;4.472;2022-10-20T17:33:10;18.10;99.90
8832;DHT22;4452;50.756;4.472;2022-10-20T17:35:36;18.10;99.90
8832;DHT22;4452;50.756;4.472;2022-10-20T17:38:02;18.10;99.90
8832;DHT22;4452;50.756;4.472;2022-10-20T17:40:28;18.10;99.90
8832;DHT22;4452;50.756;4.472;2022-10-20T17:42:55;18.00;99.90
8832;DHT22;4452;50.756;4.472;2022-10-20T17:45:20;18.10;99.90
8832;DHT22;4452;50.756;4.472;2022-10-20T17:47:46;18.10;99.90
8832;DHT22;4452;50.756;4.472;2022-10-20T17:50:11;18.10;99.90
8832;DHT22;4452;50.756;4.472;2022-10-20T17:52:37;18.10;99.90
8832;DHT22;4452;50.756;4.472;2022-10-20T17:55:03;18.10;99.90
8832;DHT22;4452;50.756;4.472;2022-10-20T17:57:29;18.00;99.90
8832;DHT22;4452;50.756;4.472;2022-10-20T17:59:55;18.00;99.90
8832;DHT22;4452;50.756;4.472;2022-10-20T18:02:21;18.00;99.90
8832;DHT22;4452;50.756;4.472;2022-10-20T18:04:49;17.90;99.90
8832;DHT22;4452;50.756;4.472;2022-10-20T18:07:14;17.90;99.90
8832;DHT22;4452;50.756;4.472;2022-10-20T18:09:40;17.90;99.90
8832;DHT22;4452;50.756;4.472;2022-10-20T18:12:06;18.00;99.90
8832;DHT22;4452;50.756;4.472;2022-10-20T18:14:32;18.00;99.90
8832;DHT22;4452;50.756;4.472;2022-10-20T18:16:57;18.10;99.90
8832;DHT22;4452;50.756;4.472;2022-10-20T18:19:23;18.00;99.90
8832;DHT22;4452;50.756;4.472;2022-10-20T18:21:49;18.00;99.90
8832;DHT22;4452;50.756;4.472;2022-10-20T18:24:16;17.90;99.90
8832;DHT22;4452;50.756;4.472;2022-10-20T18:26:42;17.80;99.90
8832;DHT22;4452;50.756;4.472;2022-10-20T18:29:08;17.80;99.90
8832;DHT22;4452;50.756;4.472;2022-10-20T18:31:36;17.70;99.90
8832;DHT22;4452;50.756;4.472;2022-10-20T18:34:09;17.70;99.90
8832;DHT22;4452;50.756;4.472;2022-10-20T18:36:36;17.60;99.90
8832;DHT22;4452;50.756;4.472;2022-10-20T18:39:03;17.60;99.90
8832;DHT22;4452;50.756;4.472;2022-10-20T18:41:31;17.50;99.90
8832;DHT22;4452;50.756;4.472;2022-10-20T18:43:59;17.50;99.90